createdAt,value
2022-09-29T00:00:14.660Z,8.16
2022-09-29T00:02:41.222Z,8.14
2022-09-29T00:05:08.256Z,8.05
2022-09-29T00:07:34.734Z,8.05
2022-09-29T00:10:01.201Z,8.05
2022-09-29T00:12:27.723Z,8.03
2022-09-29T00:14:54.142Z,8.01
2022-09-29T00:17:20.978Z,7.97
2022-09-29T00:19:47.622Z,7.93
2022-09-29T00:22:14.336Z,7.91
2022-09-29T00:24:40.772Z,7.94
2022-09-29T00:27:07.143Z,7.93
2022-09-29T00:29:33.769Z,7.92
2022-09-29T00:32:00.411Z,7.93
2022-09-29T00:34:27.010Z,7.91
2022-09-29T00:36:53.418Z,7.87
2022-09-29T00:39:19.940Z,7.86
2022-09-29T00:41:46.397Z,7.82
2022-09-29T00:44:12.824Z,7.82
2022-09-29T00:46:48.940Z,7.83
2022-09-29T00:49:44.958Z,7.80
2022-09-29T00:52:17.491Z,7.75
2022-09-29T00:54:55.561Z,7.74
2022-09-29T00:57:28.016Z,7.73
2022-09-29T00:59:54.341Z,7.73
2022-09-29T01:02:22.889Z,7.72
2022-09-29T01:04:52.784Z,7.71
2022-09-29T01:07:22.810Z,7.68
2022-09-29T01:09:53.933Z,7.66
2022-09-29T01:12:21.073Z,7.65
2022-09-29T01:14:48.390Z,7.60
2022-09-29T01:17:15.272Z,7.53
2022-09-29T01:19:44.823Z,7.53
2022-09-29T01:22:21.588Z,7.54
2022-09-29T01:25:22.913Z,7.56
2022-09-29T01:28:03.519Z,7.58
2022-09-29T01:30:41.430Z,7.55
2022-09-29T01:33:34.080Z,7.53
2022-09-29T01:36:24.200Z,7.52
2022-09-29T01:39:27.083Z,7.52
2022-09-29T01:42:00.142Z,7.51
2022-09-29T01:44:29.262Z,7.50
2022-09-29T01:47:12.023Z,7.46
2022-09-29T01:49:43.628Z,7.42
2022-09-29T01:52:14.896Z,7.37
2022-09-29T01:54:46.500Z,7.34
2022-09-29T01:57:39.314Z,7.30
2022-09-29T02:00:15.564Z,7.24
2022-09-29T02:02:53.908Z,7.26
2022-09-29T02:05:55.837Z,7.26
2022-09-29T02:08:32.923Z,7.24
2022-09-29T02:11:05.829Z,7.23
2022-09-29T02:13:39.700Z,7.24
2022-09-29T02:16:13.318Z,7.24
2022-09-29T02:18:55.082Z,7.23
2022-09-29T02:21:25.672Z,7.18
2022-09-29T02:23:53.014Z,7.16
2022-09-29T02:26:24.017Z,7.14
2022-09-29T02:29:16.311Z,7.14
2022-09-29T02:31:52.381Z,7.13
2022-09-29T02:34:22.222Z,7.12
2022-09-29T02:37:14.790Z,7.12
2022-09-29T02:40:08.242Z,7.04
2022-09-29T02:43:21.681Z,7.04
2022-09-29T02:46:08.540Z,7.03
2022-09-29T02:49:08.582Z,6.99
2022-09-29T02:51:41.571Z,6.95
2022-09-29T02:54:33.731Z,6.97
2022-09-29T02:57:20.239Z,6.97
2022-09-29T03:00:09.849Z,6.95
2022-09-29T03:02:38.118Z,6.90
2022-09-29T03:05:13.709Z,6.89
2022-09-29T03:07:40.363Z,6.85
2022-09-29T03:10:08.156Z,6.83
2022-09-29T03:12:35.482Z,6.80
2022-09-29T03:15:02.131Z,6.78
2022-09-29T03:17:29.036Z,6.74
2022-09-29T03:19:58.315Z,6.75
2022-09-29T03:22:25.266Z,6.76
2022-09-29T03:24:51.782Z,6.71
2022-09-29T03:27:18.385Z,6.68
2022-09-29T03:29:44.793Z,6.67
2022-09-29T03:32:11.773Z,6.65
2022-09-29T03:34:38.176Z,6.62
2022-09-29T03:37:04.957Z,6.57
2022-09-29T03:39:31.347Z,6.59
2022-09-29T03:41:57.748Z,6.61
2022-09-29T03:44:24.181Z,6.60
2022-09-29T03:46:50.683Z,6.59
2022-09-29T03:49:18.137Z,6.59
2022-09-29T03:51:44.872Z,6.58
2022-09-29T03:54:11.859Z,6.53
2022-09-29T03:56:38.750Z,6.50
2022-09-29T03:59:09.471Z,6.48
2022-09-29T04:01:38.193Z,6.50
2022-09-29T04:04:06.855Z,6.54
2022-09-29T04:06:34.033Z,6.54
2022-09-29T04:09:00.501Z,6.52
2022-09-29T04:11:27.774Z,6.47
2022-09-29T04:13:54.296Z,6.43
2022-09-29T04:16:20.800Z,6.43
2022-09-29T04:18:47.707Z,6.40
2022-09-29T04:21:14.496Z,6.35
2022-09-29T04:23:41.688Z,6.32
2022-09-29T04:26:08.385Z,6.30
2022-09-29T04:28:36.551Z,6.28
2022-09-29T04:31:03.953Z,6.27
2022-09-29T04:33:31.388Z,6.28
2022-09-29T04:35:59.060Z,6.28
2022-09-29T04:38:25.824Z,6.25
2022-09-29T04:40:52.419Z,6.23
2022-09-29T04:43:18.774Z,6.21
2022-09-29T04:45:45.333Z,6.16
2022-09-29T04:48:11.814Z,6.16
2022-09-29T04:50:38.520Z,6.13
2022-09-29T04:53:05.102Z,6.13
2022-09-29T04:55:31.457Z,6.16
2022-09-29T04:57:57.833Z,6.12
2022-09-29T05:00:24.591Z,6.07
2022-09-29T05:02:50.978Z,6.08
2022-09-29T05:05:17.639Z,6.06
2022-09-29T05:07:44.513Z,6.05
2022-09-29T05:10:12.077Z,6.17
2022-09-29T05:12:38.438Z,6.19
2022-09-29T05:15:06.209Z,6.20
2022-09-29T05:17:32.735Z,6.24
2022-09-29T05:20:00.894Z,6.23
2022-09-29T05:22:27.450Z,6.18
2022-09-29T05:24:53.944Z,6.17
2022-09-29T05:27:21.808Z,6.10
2022-09-29T05:29:48.989Z,6.09
2022-09-29T05:32:15.499Z,6.13
2022-09-29T05:34:42.023Z,6.15
2022-09-29T05:37:09.856Z,6.17
2022-09-29T05:39:37.274Z,6.15
2022-09-29T05:42:06.597Z,6.13
2022-09-29T05:44:34.272Z,6.08
2022-09-29T05:47:01.057Z,6.04
2022-09-29T05:49:29.126Z,6.05
2022-09-29T05:51:56.791Z,6.02
2022-09-29T05:54:24.497Z,6.02
2022-09-29T05:56:53.114Z,6.03
2022-09-29T05:59:19.657Z,6.05
2022-09-29T06:01:46.390Z,6.07
2022-09-29T06:04:13.557Z,6.12
2022-09-29T06:06:42.206Z,6.10
2022-09-29T06:09:10.834Z,6.07
2022-09-29T06:11:37.331Z,6.10
2022-09-29T06:14:04.142Z,6.15
2022-09-29T06:16:32.217Z,6.12
2022-09-29T06:19:02.056Z,6.16
2022-09-29T06:21:30.378Z,6.18
2022-09-29T06:23:57.970Z,6.17
2022-09-29T06:26:26.237Z,6.18
2022-09-29T06:28:53.985Z,6.21
2022-09-29T06:31:24.116Z,6.17
2022-09-29T06:33:52.619Z,6.18
2022-09-29T06:37:13.457Z,6.23
2022-09-29T06:39:39.873Z,6.24
2022-09-29T06:42:06.421Z,6.26
2022-09-29T06:44:32.901Z,6.26
2022-09-29T06:46:59.619Z,6.31
2022-09-29T06:49:26.290Z,6.38
2022-09-29T06:51:52.787Z,6.42
2022-09-29T06:54:26.877Z,6.42
2022-09-29T06:56:55.574Z,6.40
2022-09-29T06:59:22.368Z,6.46
2022-09-29T07:01:50.134Z,6.49
2022-09-29T07:04:18.980Z,6.51
2022-09-29T07:06:45.764Z,6.57
2022-09-29T07:09:16.274Z,6.61
2022-09-29T07:11:49.207Z,6.68
2022-09-29T07:14:16.704Z,6.68
2022-09-29T07:16:44.170Z,6.73
2022-09-29T07:19:10.784Z,6.77
2022-09-29T07:21:37.201Z,6.81
2022-09-29T07:24:03.671Z,6.81
2022-09-29T07:26:30.216Z,6.81
2022-09-29T07:28:56.791Z,6.85
2022-09-29T07:31:23.487Z,6.89
2022-09-29T07:33:50.937Z,6.95
2022-09-29T07:36:19.626Z,6.99
2022-09-29T07:38:47.754Z,6.99
2022-09-29T07:41:14.436Z,7.04
2022-09-29T07:43:40.870Z,7.05
2022-09-29T07:46:08.277Z,7.07
2022-09-29T07:48:36.396Z,7.12
2022-09-29T07:51:13.238Z,7.15
2022-09-29T07:53:39.913Z,7.14
2022-09-29T07:56:15.114Z,7.15
2022-09-29T07:58:42.207Z,7.20
2022-09-29T08:01:12.704Z,7.26
2022-09-29T08:03:41.039Z,7.33
2022-09-29T08:06:07.993Z,7.35
2022-09-29T08:08:45.234Z,7.43
2022-09-29T08:11:29.936Z,7.49
2022-09-29T08:13:58.344Z,7.45
2022-09-29T08:16:25.090Z,7.46
2022-09-29T08:18:51.776Z,7.50
2022-09-29T08:21:18.572Z,7.55
2022-09-29T08:23:45.094Z,7.68
2022-09-29T08:26:14.889Z,7.78
2022-09-29T08:28:42.182Z,7.82
2022-09-29T08:31:14.388Z,7.83
2022-09-29T08:33:41.251Z,7.83
2022-09-29T08:36:15.511Z,7.82
2022-09-29T08:38:43.389Z,7.83
2022-09-29T08:41:36.641Z,7.93
2022-09-29T08:44:05.064Z,8.02
2022-09-29T08:46:37.813Z,8.03
2022-09-29T08:49:21.371Z,8.13
2022-09-29T08:51:57.551Z,8.21
2022-09-29T08:54:39.157Z,8.42
2022-09-29T08:57:07.520Z,8.66
2022-09-29T08:59:34.155Z,8.81
2022-09-29T09:02:07.452Z,8.89
2022-09-29T09:04:46.383Z,9.04
2022-09-29T09:07:35.356Z,9.17
2022-09-29T09:10:39.935Z,9.30
2022-09-29T09:13:18.465Z,9.24
2022-09-29T09:16:06.419Z,9.31
2022-09-29T09:18:51.715Z,9.48
2022-09-29T09:21:25.545Z,9.66
2022-09-29T09:24:00.581Z,9.79
2022-09-29T09:26:43.075Z,9.88
2022-09-29T09:29:25.397Z,9.92
2022-09-29T09:31:57.564Z,9.82
2022-09-29T09:34:44.928Z,9.85
2022-09-29T09:37:25.348Z,9.88
2022-09-29T09:39:56.905Z,9.91
2022-09-29T09:42:32.635Z,10.09
2022-09-29T09:45:16.425Z,10.19
2022-09-29T09:47:50.515Z,10.20
2022-09-29T09:50:19.644Z,10.25
2022-09-29T09:52:52.099Z,10.30
2022-09-29T09:55:26.494Z,10.46
2022-09-29T09:58:22.085Z,10.52
2022-09-29T10:01:02.007Z,10.61
2022-09-29T10:03:30.019Z,10.73
2022-09-29T10:05:57.893Z,10.84
2022-09-29T10:08:38.458Z,10.94
2022-09-29T10:11:20.559Z,10.97
2022-09-29T10:13:48.263Z,11.08
2022-09-29T10:16:24.491Z,11.16
2022-09-29T10:18:54.394Z,11.30
2022-09-29T10:21:36.061Z,11.41
2022-09-29T10:24:04.245Z,11.44
2022-09-29T10:26:39.763Z,11.51
2022-09-29T10:29:39.974Z,11.67
2022-09-29T10:32:08.367Z,11.75
2022-09-29T10:34:39.685Z,11.80
2022-09-29T10:37:35.735Z,11.93
2022-09-29T10:40:23.828Z,11.98
2022-09-29T10:42:51.450Z,12.02
2022-09-29T10:45:23.644Z,12.10
2022-09-29T10:47:59.541Z,12.24
2022-09-29T10:50:34.995Z,12.28
2022-09-29T10:53:16.884Z,12.31
2022-09-29T10:55:53.513Z,12.45
2022-09-29T10:58:59.091Z,12.49
2022-09-29T11:01:28.881Z,12.47
2022-09-29T11:04:03.306Z,12.51
2022-09-29T11:06:35.790Z,12.65
2022-09-29T11:09:06.904Z,12.85
2022-09-29T11:11:38.147Z,12.96
2022-09-29T11:14:04.800Z,13.05
2022-09-29T11:16:38.014Z,13.14
2022-09-29T11:19:14.709Z,13.15
2022-09-29T11:22:05.304Z,13.25
2022-09-29T11:24:52.497Z,13.30
2022-09-29T11:27:31.099Z,13.40
2022-09-29T11:30:12.208Z,13.50
2022-09-29T11:33:05.846Z,13.58
2022-09-29T11:35:50.459Z,13.60
2022-09-29T11:38:58.312Z,13.65
2022-09-29T11:41:35.152Z,13.69
2022-09-29T11:44:23.698Z,13.78
2022-09-29T11:47:04.784Z,13.86
2022-09-29T11:49:50.641Z,13.82
2022-09-29T11:52:32.710Z,13.96
2022-09-29T11:55:09.091Z,13.98
2022-09-29T11:58:01.005Z,14.03
2022-09-29T12:01:00.223Z,14.11
2022-09-29T12:03:52.238Z,14.06
2022-09-29T12:06:51.242Z,13.99
2022-09-29T12:09:30.541Z,14.09
2022-09-29T12:12:22.519Z,14.16
2022-09-29T12:15:27.376Z,14.31
2022-09-29T12:17:59.420Z,14.40
2022-09-29T12:20:34.562Z,14.34
2022-09-29T12:23:05.766Z,14.28
2022-09-29T12:25:37.133Z,14.38
2022-09-29T12:28:18.093Z,14.36
2022-09-29T12:30:51.764Z,14.32
2022-09-29T12:33:25.814Z,14.34
2022-09-29T12:35:52.311Z,14.23
2022-09-29T12:38:37.350Z,14.10
2022-09-29T12:41:09.779Z,13.99
2022-09-29T12:43:45.840Z,13.89
2022-09-29T12:46:19.999Z,13.80
2022-09-29T12:49:03.928Z,13.75
2022-09-29T12:51:36.906Z,13.61
2022-09-29T12:54:12.502Z,13.57
2022-09-29T12:56:54.925Z,13.78
2022-09-29T12:59:43.772Z,13.98
2022-09-29T13:02:22.300Z,14.05
2022-09-29T13:05:13.519Z,14.05
2022-09-29T13:08:02.794Z,14.16
2022-09-29T13:10:55.011Z,14.24
2022-09-29T13:13:33.622Z,14.33
2022-09-29T13:16:38.268Z,14.38
2022-09-29T13:19:52.523Z,14.44
2022-09-29T13:22:39.193Z,14.63
2022-09-29T13:25:41.169Z,14.81
2022-09-29T13:28:39.890Z,14.91
2022-09-29T13:31:10.947Z,14.84
2022-09-29T13:33:38.187Z,14.64
2022-09-29T13:36:05.088Z,14.44
2022-09-29T13:38:38.723Z,14.33
2022-09-29T13:41:09.930Z,14.24
2022-09-29T13:43:56.659Z,14.32
2022-09-29T13:46:26.265Z,14.33
2022-09-29T13:49:02.244Z,14.27
2022-09-29T13:51:54.059Z,14.32
2022-09-29T13:54:25.036Z,14.31
2022-09-29T13:57:10.203Z,14.29
2022-09-29T13:59:39.663Z,14.25
2022-09-29T14:02:33.146Z,14.25
2022-09-29T14:05:00.338Z,14.17
2022-09-29T14:07:40.637Z,14.16
2022-09-29T14:10:37.452Z,14.13
2022-09-29T14:13:06.320Z,14.09
2022-09-29T14:15:44.098Z,14.08
2022-09-29T14:18:41.775Z,14.07
2022-09-29T14:21:14.575Z,14.05
2022-09-29T14:23:49.076Z,14.04
2022-09-29T14:26:48.398Z,14.05
2022-09-29T14:29:27.153Z,14.03
2022-09-29T14:31:57.654Z,14.04
2022-09-29T14:34:29.336Z,14.02
2022-09-29T14:36:58.566Z,14.01
2022-09-29T14:39:27.290Z,14.01
2022-09-29T14:41:54.326Z,14.02
2022-09-29T14:44:51.573Z,14.05
2022-09-29T14:47:48.981Z,14.08
2022-09-29T14:50:57.112Z,14.08
2022-09-29T14:53:40.070Z,14.05
2022-09-29T14:56:09.229Z,14.02
2022-09-29T14:58:59.762Z,14.06
2022-09-29T15:01:31.933Z,14.02
2022-09-29T15:04:07.787Z,14.01
2022-09-29T15:06:34.943Z,13.94
2022-09-29T15:09:13.567Z,13.92
2022-09-29T15:11:46.430Z,13.90
2022-09-29T15:14:36.960Z,13.89
2022-09-29T15:17:29.187Z,13.90
2022-09-29T15:20:14.011Z,13.91
2022-09-29T15:22:58.760Z,13.91
2022-09-29T15:25:43.267Z,13.93
2022-09-29T15:28:15.952Z,13.90
2022-09-29T15:30:43.826Z,13.90
2022-09-29T15:33:26.518Z,13.90
2022-09-29T15:35:57.894Z,13.86
2022-09-29T15:38:24.205Z,13.83
2022-09-29T15:40:56.382Z,13.85
2022-09-29T15:43:28.225Z,13.82
2022-09-29T15:46:00.604Z,13.83
2022-09-29T15:48:27.880Z,13.81
2022-09-29T15:50:55.768Z,13.79
2022-09-29T15:53:27.588Z,13.77
2022-09-29T15:55:55.561Z,13.73
2022-09-29T15:58:31.053Z,13.72
2022-09-29T16:01:06.791Z,13.64
2022-09-29T16:03:43.823Z,13.62
2022-09-29T16:06:39.943Z,13.64
2022-09-29T16:09:22.737Z,13.63
2022-09-29T16:11:49.939Z,13.65
2022-09-29T16:14:25.981Z,13.68
2022-09-29T16:16:53.937Z,13.63
2022-09-29T16:19:30.564Z,13.65
2022-09-29T16:21:59.811Z,13.63
2022-09-29T16:24:31.518Z,13.62
2022-09-29T16:26:59.258Z,13.59
2022-09-29T16:29:26.865Z,13.55
2022-09-29T16:31:54.243Z,13.49
2022-09-29T16:34:25.047Z,13.46
2022-09-29T16:37:05.991Z,13.45
2022-09-29T16:39:41.581Z,13.44
2022-09-29T16:42:19.472Z,13.43
2022-09-29T16:44:47.650Z,13.37
2022-09-29T16:47:29.541Z,13.34
2022-09-29T16:49:58.185Z,13.31
2022-09-29T16:52:47.247Z,13.30
2022-09-29T16:55:27.623Z,13.25
2022-09-29T16:58:05.033Z,13.21
2022-09-29T17:00:31.733Z,13.12
2022-09-29T17:02:58.242Z,13.10
2022-09-29T17:05:25.735Z,13.05
2022-09-29T17:08:00.931Z,13.04
2022-09-29T17:10:27.572Z,13.01
2022-09-29T17:12:55.205Z,12.95
2022-09-29T17:15:22.548Z,12.90
2022-09-29T17:17:50.579Z,12.85
2022-09-29T17:20:20.108Z,12.82
2022-09-29T17:22:48.823Z,12.79
2022-09-29T17:25:15.214Z,12.76
2022-09-29T17:28:02.418Z,12.74
2022-09-29T17:30:29.013Z,12.69
2022-09-29T17:32:58.106Z,12.58
2022-09-29T17:35:28.695Z,12.54
2022-09-29T17:37:56.323Z,12.48
2022-09-29T17:41:06.465Z,12.50
2022-09-29T17:43:33.471Z,12.45
2022-09-29T17:46:01.205Z,12.42
2022-09-29T17:48:29.381Z,12.39
2022-09-29T17:50:58.061Z,12.36
2022-09-29T17:53:26.344Z,12.34
2022-09-29T17:55:56.189Z,12.32
2022-09-29T17:58:23.299Z,12.25
2022-09-29T18:00:55.416Z,12.23
2022-09-29T18:03:22.264Z,12.20
2022-09-29T18:05:59.825Z,12.17
2022-09-29T18:08:29.151Z,12.17
2022-09-29T18:10:57.961Z,12.16
2022-09-29T18:13:27.609Z,12.12
2022-09-29T18:15:55.399Z,12.06
2022-09-29T18:18:23.334Z,11.99
2022-09-29T18:20:50.220Z,11.96
2022-09-29T18:23:19.294Z,11.94
2022-09-29T18:25:48.233Z,11.81
2022-09-29T18:28:16.741Z,11.76
2022-09-29T18:30:45.372Z,11.69
2022-09-29T18:35:44.041Z,11.58
2022-09-29T18:38:11.113Z,11.58
2022-09-29T18:40:39.093Z,11.54
2022-09-29T18:43:07.296Z,11.54
2022-09-29T18:45:38.638Z,11.57
2022-09-29T18:48:07.430Z,11.54
2022-09-29T18:50:39.100Z,11.47
2022-09-29T18:53:06.213Z,11.44
2022-09-29T18:55:32.921Z,11.41
2022-09-29T18:57:59.930Z,11.46
2022-09-29T19:00:31.179Z,11.47
2022-09-29T19:03:00.020Z,11.45
2022-09-29T19:05:31.799Z,11.46
2022-09-29T19:08:04.487Z,11.44
2022-09-29T19:10:33.530Z,11.41
2022-09-29T19:13:07.717Z,11.38
2022-09-29T19:15:38.632Z,11.35
2022-09-29T19:18:07.510Z,11.35
2022-09-29T19:20:35.041Z,11.28
2022-09-29T19:23:05.562Z,11.25
2022-09-29T19:25:35.473Z,11.24
2022-09-29T19:28:06.748Z,11.18
2022-09-29T19:30:36.277Z,11.18
2022-09-29T19:33:02.865Z,11.08
2022-09-29T19:35:29.561Z,10.98
2022-09-29T19:37:59.152Z,10.98
2022-09-29T19:40:30.282Z,10.97
2022-09-29T19:42:58.998Z,10.98
2022-09-29T19:45:27.616Z,10.97
2022-09-29T19:47:57.168Z,10.94
2022-09-29T19:50:43.548Z,10.89
2022-09-29T19:53:10.875Z,10.85
2022-09-29T19:55:40.282Z,10.82
2022-09-29T19:58:07.240Z,10.81
2022-09-29T20:00:34.521Z,10.80
2022-09-29T20:03:01.462Z,10.79
2022-09-29T20:05:28.117Z,10.79
2022-09-29T20:07:54.917Z,10.71
2022-09-29T20:10:22.073Z,10.72
2022-09-29T20:12:48.751Z,10.69
2022-09-29T20:15:15.431Z,10.68
2022-09-29T20:17:44.150Z,10.66
2022-09-29T20:20:11.795Z,10.62
2022-09-29T20:22:38.616Z,10.61
2022-09-29T20:25:08.037Z,10.59
2022-09-29T20:27:35.808Z,10.57
2022-09-29T20:30:05.083Z,10.53
2022-09-29T20:32:33.603Z,10.51
2022-09-29T20:35:00.905Z,10.50
2022-09-29T20:37:29.122Z,10.48
2022-09-29T20:39:56.403Z,10.45
2022-09-29T20:42:23.277Z,10.36
2022-09-29T20:44:54.956Z,10.32
2022-09-29T20:47:25.129Z,10.25
2022-09-29T20:49:54.975Z,10.22
2022-09-29T20:52:22.504Z,10.19
2022-09-29T20:54:50.010Z,10.18
2022-09-29T20:57:18.147Z,10.17
2022-09-29T20:59:44.918Z,10.15
2022-09-29T21:02:13.367Z,10.17
2022-09-29T21:04:42.637Z,10.16
2022-09-29T21:07:29.246Z,10.11
2022-09-29T21:09:55.814Z,10.08
2022-09-29T21:12:22.929Z,10.07
2022-09-29T21:14:50.226Z,10.08
2022-09-29T21:17:16.952Z,10.08
2022-09-29T21:19:43.800Z,10.09
2022-09-29T21:22:10.482Z,10.05
2022-09-29T21:24:39.223Z,9.97
2022-09-29T21:27:07.253Z,9.90
2022-09-29T21:29:33.980Z,9.87
2022-09-29T21:32:02.044Z,9.90
2022-09-29T21:34:28.894Z,9.92
2022-09-29T21:36:55.504Z,9.91
2022-09-29T21:39:21.988Z,9.88
2022-09-29T21:41:48.789Z,9.80
2022-09-29T21:44:18.031Z,9.82
2022-09-29T21:46:45.903Z,9.83
2022-09-29T21:49:14.416Z,9.78
2022-09-29T21:51:43.605Z,9.79
2022-09-29T21:54:18.572Z,9.76
2022-09-29T21:56:46.950Z,9.71
2022-09-29T21:59:15.884Z,9.68
2022-09-29T22:01:44.671Z,9.65
2022-09-29T22:04:12.241Z,9.68
2022-09-29T22:06:40.138Z,9.66
2022-09-29T22:09:08.625Z,9.65
2022-09-29T22:11:42.233Z,9.60
2022-09-29T22:14:11.462Z,9.55
2022-09-29T22:16:38.240Z,9.54
2022-09-29T22:19:22.555Z,9.41
2022-09-29T22:21:50.476Z,9.40
2022-09-29T22:24:17.164Z,9.37
2022-09-29T22:26:43.809Z,9.42
2022-09-29T22:29:10.254Z,9.37
2022-09-29T22:31:39.190Z,9.37
2022-09-29T22:34:05.921Z,9.40
2022-09-29T22:36:34.051Z,9.40
2022-09-29T22:39:02.007Z,9.41
2022-09-29T22:41:29.170Z,9.41
2022-09-29T22:43:58.373Z,9.38
2022-09-29T22:46:27.117Z,9.39
2022-09-29T22:48:53.596Z,9.37
2022-09-29T22:51:23.441Z,9.35
2022-09-29T22:53:49.992Z,9.34
2022-09-29T22:56:19.059Z,9.24
2022-09-29T22:58:46.744Z,9.17
2022-09-29T23:01:15.541Z,9.18
2022-09-29T23:03:44.111Z,9.19
2022-09-29T23:06:11.371Z,9.15
2022-09-29T23:08:38.663Z,9.14
2022-09-29T23:11:07.344Z,9.17
2022-09-29T23:13:37.638Z,9.21
2022-09-29T23:16:12.442Z,9.21
2022-09-29T23:18:45.675Z,9.10
2022-09-29T23:21:14.625Z,9.05
2022-09-29T23:23:41.497Z,9.02
2022-09-29T23:26:08.163Z,9.06
2022-09-29T23:28:34.657Z,9.07
2022-09-29T23:31:05.915Z,9.05
2022-09-29T23:33:32.863Z,9.04
2022-09-29T23:36:12.667Z,9.08
2022-09-29T23:38:59.956Z,9.00
2022-09-29T23:41:27.371Z,8.92
2022-09-29T23:43:57.279Z,8.88
2022-09-29T23:46:25.270Z,8.87
2022-09-29T23:48:51.963Z,8.85
2022-09-29T23:51:19.185Z,8.85
2022-09-29T23:53:45.879Z,8.82
2022-09-29T23:56:12.615Z,8.82
2022-09-29T23:58:39.113Z,8.82
